createdAt,value
2022-08-17T00:02:25.527Z,7.37
2022-08-17T00:04:50.614Z,7.80
2022-08-17T00:07:12.231Z,7.67
2022-08-17T00:09:33.610Z,8.17
2022-08-17T00:12:41.839Z,7.37
2022-08-17T00:14:37.946Z,7.33
2022-08-17T00:16:59.460Z,8.27
2022-08-17T00:19:23.514Z,8.13
2022-08-17T00:22:30.115Z,8.10
2022-08-17T00:24:29.390Z,7.97
2022-08-17T00:26:50.924Z,7.90
2022-08-17T00:29:19.521Z,7.90
2022-08-17T00:31:43.278Z,7.70
2022-08-17T00:34:06.165Z,8.20
2022-08-17T00:36:27.979Z,8.30
2022-08-17T00:38:49.705Z,8.10
2022-08-17T00:41:13.865Z,7.70
2022-08-17T00:43:39.773Z,8.10
2022-08-17T00:46:03.610Z,7.50
2022-08-17T00:48:29.870Z,7.63
2022-08-17T00:50:58.657Z,7.67
2022-08-17T00:53:20.425Z,7.47
2022-08-17T00:55:42.141Z,8.23
2022-08-17T00:58:06.123Z,8.47
2022-08-17T01:00:33.391Z,8.00
2022-08-17T01:02:58.311Z,7.90
2022-08-17T01:05:25.334Z,8.70
2022-08-17T01:07:48.498Z,7.97
2022-08-17T01:10:58.996Z,8.30
2022-08-17T01:12:53.465Z,8.33
2022-08-17T01:15:15.274Z,8.83
2022-08-17T01:17:37.189Z,8.40
2022-08-17T01:19:59.236Z,8.73
2022-08-17T01:22:24.274Z,8.40
2022-08-17T01:24:48.309Z,9.30
2022-08-17T01:27:11.550Z,8.80
2022-08-17T01:29:33.431Z,7.90
2022-08-17T01:31:57.895Z,8.67
2022-08-17T01:34:20.533Z,8.37
2022-08-17T01:36:44.610Z,8.07
2022-08-17T01:39:08.651Z,8.30
2022-08-17T01:41:30.390Z,7.90
2022-08-17T01:43:55.339Z,7.80
2022-08-17T01:46:20.075Z,7.70
2022-08-17T01:48:43.116Z,8.13
2022-08-17T01:51:07.208Z,8.07
2022-08-17T01:53:32.101Z,8.30
2022-08-17T01:55:57.308Z,9.13
2022-08-17T01:58:19.629Z,8.40
2022-08-17T02:01:00.631Z,8.47
2022-08-17T02:03:24.502Z,8.13
2022-08-17T02:05:48.511Z,8.10
2022-08-17T02:08:09.789Z,8.57
2022-08-17T02:10:46.833Z,7.87
2022-08-17T02:13:09.950Z,7.77
2022-08-17T02:15:32.048Z,7.80
2022-08-17T02:17:54.742Z,7.60
2022-08-17T02:20:16.296Z,8.03
2022-08-17T02:22:59.891Z,8.30
2022-08-17T02:25:22.275Z,8.17
2022-08-17T02:27:43.869Z,7.77
2022-08-17T02:30:59.617Z,8.57
2022-08-17T02:32:50.116Z,8.13
2022-08-17T02:35:13.556Z,8.43
2022-08-17T02:37:35.702Z,8.13
2022-08-17T02:39:58.707Z,8.10
2022-08-17T02:42:20.274Z,8.40
2022-08-17T02:44:41.886Z,8.20
2022-08-17T02:47:05.198Z,7.87
2022-08-17T02:49:26.586Z,8.23
2022-08-17T02:51:48.065Z,8.13
2022-08-17T02:54:41.328Z,8.80
2022-08-17T02:56:51.196Z,8.53
2022-08-17T02:59:12.831Z,8.33
2022-08-17T03:01:34.647Z,8.53
2022-08-17T03:03:58.056Z,8.43
2022-08-17T03:06:19.459Z,8.20
2022-08-17T03:08:40.956Z,8.17
2022-08-17T03:11:02.116Z,8.60
2022-08-17T03:13:23.486Z,8.40
2022-08-17T03:15:46.587Z,8.40
2022-08-17T03:18:08.735Z,8.77
2022-08-17T03:20:42.726Z,9.37
2022-08-17T03:23:05.146Z,8.67
2022-08-17T03:25:32.088Z,8.47
2022-08-17T03:27:57.046Z,8.77
2022-08-17T03:30:18.797Z,7.87
2022-08-17T03:32:56.151Z,8.70
2022-08-17T03:35:20.905Z,9.10
2022-08-17T03:37:44.102Z,8.97
2022-08-17T03:40:07.908Z,9.00
2022-08-17T03:42:32.293Z,8.77
2022-08-17T03:44:55.774Z,8.90
2022-08-17T03:47:48.928Z,8.87
2022-08-17T03:50:41.108Z,8.87
2022-08-17T03:53:26.041Z,9.17
2022-08-17T03:56:06.237Z,8.33
2022-08-17T03:58:28.133Z,10.07
2022-08-17T04:00:50.170Z,9.30
2022-08-17T04:03:11.814Z,8.87
2022-08-17T04:05:34.523Z,8.93
2022-08-17T04:07:56.717Z,9.73
2022-08-17T04:10:21.837Z,10.43
2022-08-17T04:12:48.588Z,11.17
2022-08-17T04:15:12.571Z,10.80
2022-08-17T04:17:33.767Z,11.50
2022-08-17T04:19:55.465Z,12.30
2022-08-17T04:22:31.130Z,11.43
2022-08-17T04:24:55.278Z,10.87
2022-08-17T04:27:21.370Z,11.13
2022-08-17T04:29:54.422Z,10.53
2022-08-17T04:32:17.992Z,10.57
2022-08-17T04:34:58.369Z,10.77
2022-08-17T04:37:20.097Z,10.40
2022-08-17T04:40:04.069Z,9.87
2022-08-17T04:42:26.297Z,10.30
2022-08-17T04:44:47.564Z,10.87
2022-08-17T04:47:10.612Z,10.93
2022-08-17T04:49:35.118Z,9.80
2022-08-17T04:52:00.066Z,9.43
2022-08-17T04:54:24.222Z,9.03
2022-08-17T04:56:45.991Z,9.37
2022-08-17T04:59:10.489Z,9.17
2022-08-17T05:01:34.988Z,9.87
2022-08-17T05:04:00.091Z,10.43
2022-08-17T05:06:25.417Z,10.30
2022-08-17T05:08:46.754Z,9.87
2022-08-17T05:11:08.510Z,8.93
2022-08-17T05:13:30.806Z,9.03
2022-08-17T05:15:58.652Z,10.53
2022-08-17T05:18:20.254Z,9.63
2022-08-17T05:20:44.122Z,10.00
2022-08-17T05:23:13.428Z,8.90
2022-08-17T05:25:37.504Z,9.40
2022-08-17T05:27:59.460Z,9.10
2022-08-17T05:30:24.817Z,9.43
2022-08-17T05:32:55.486Z,9.37
2022-08-17T05:35:16.999Z,9.00
2022-08-17T05:37:39.058Z,9.67
2022-08-17T05:40:00.908Z,9.27
2022-08-17T05:42:23.074Z,9.17
2022-08-17T05:44:44.723Z,9.13
2022-08-17T05:47:07.389Z,9.17
2022-08-17T05:49:33.501Z,10.13
2022-08-17T05:52:05.090Z,9.03
2022-08-17T05:54:34.929Z,9.37
2022-08-17T05:57:05.462Z,8.87
2022-08-17T05:59:34.244Z,9.23
2022-08-17T06:02:04.052Z,8.50
2022-08-17T06:04:46.381Z,9.60
2022-08-17T06:07:13.755Z,9.63
2022-08-17T06:09:40.990Z,9.20
2022-08-17T06:12:14.424Z,9.67
2022-08-17T06:15:01.160Z,9.27
2022-08-17T06:17:25.058Z,9.83
2022-08-17T06:19:55.213Z,9.03
2022-08-17T06:22:20.356Z,9.13
2022-08-17T06:24:44.359Z,9.13
2022-08-17T06:27:10.249Z,9.73
2022-08-17T06:29:38.248Z,9.50
2022-08-17T06:31:59.416Z,9.60
2022-08-17T06:34:21.697Z,10.00
2022-08-17T06:36:52.081Z,10.00
2022-08-17T06:39:27.490Z,9.80
2022-08-17T06:41:55.726Z,9.00
2022-08-17T06:44:42.258Z,8.83
2022-08-17T06:47:06.583Z,9.20
2022-08-17T06:49:33.221Z,9.10
2022-08-17T06:52:01.549Z,9.50
2022-08-17T06:54:28.458Z,9.23
2022-08-17T06:56:55.506Z,9.43
2022-08-17T06:59:21.174Z,10.10
2022-08-17T07:01:43.014Z,9.73
2022-08-17T07:04:11.643Z,10.80
2022-08-17T07:06:37.032Z,9.90
2022-08-17T07:09:04.484Z,9.60
2022-08-17T07:11:29.059Z,10.30
2022-08-17T07:13:58.188Z,9.83
2022-08-17T07:16:23.293Z,10.07
2022-08-17T07:18:45.346Z,9.00
2022-08-17T07:21:17.557Z,9.63
2022-08-17T07:23:50.680Z,9.50
2022-08-17T07:26:13.470Z,9.33
2022-08-17T07:28:36.355Z,9.53
2022-08-17T07:30:57.793Z,9.70
2022-08-17T07:33:21.326Z,9.20
2022-08-17T07:35:44.354Z,9.20
2022-08-17T07:38:25.748Z,8.80
2022-08-17T07:40:50.618Z,8.77
2022-08-17T07:43:23.059Z,8.50
2022-08-17T07:46:34.518Z,8.87
2022-08-17T07:48:58.386Z,8.97
2022-08-17T07:51:27.084Z,8.43
2022-08-17T07:53:48.451Z,9.03
2022-08-17T07:56:10.234Z,8.53
2022-08-17T07:58:33.007Z,8.40
2022-08-17T08:01:13.516Z,8.10
2022-08-17T08:03:41.847Z,8.70
2022-08-17T08:06:04.154Z,7.97
2022-08-17T08:08:30.214Z,7.70
2022-08-17T08:11:01.428Z,7.60
2022-08-17T08:13:25.145Z,7.40
2022-08-17T08:15:54.005Z,7.20
2022-08-17T08:18:53.845Z,7.63
2022-08-17T08:21:09.416Z,7.70
2022-08-17T08:23:41.570Z,7.30
2022-08-17T08:26:18.374Z,7.70
2022-08-17T08:28:44.580Z,7.37
2022-08-17T08:31:17.086Z,8.07
2022-08-17T08:33:48.504Z,7.87
2022-08-17T08:36:56.822Z,7.90
2022-08-17T08:39:09.859Z,8.30
2022-08-17T08:41:41.253Z,7.83
2022-08-17T08:44:15.290Z,8.87
2022-08-17T08:46:47.074Z,8.50
2022-08-17T08:50:01.442Z,7.67
2022-08-17T08:52:23.990Z,7.57
2022-08-17T08:54:49.523Z,7.30
2022-08-17T08:57:30.838Z,7.00
2022-08-17T09:00:12.787Z,7.27
2022-08-17T09:02:56.935Z,7.87
2022-08-17T09:05:30.655Z,7.53
2022-08-17T09:08:01.182Z,6.77
2022-08-17T09:10:25.521Z,6.97
2022-08-17T09:12:51.764Z,7.53
2022-08-17T09:15:17.725Z,7.50
2022-08-17T09:17:45.010Z,7.67
2022-08-17T09:20:27.614Z,7.23
2022-08-17T09:22:55.399Z,7.17
2022-08-17T09:25:21.693Z,7.63
2022-08-17T09:27:51.446Z,7.43
2022-08-17T09:30:14.510Z,7.63
2022-08-17T09:32:40.582Z,7.60
2022-08-17T09:35:15.479Z,7.37
2022-08-17T09:37:41.308Z,7.63
2022-08-17T09:40:10.793Z,7.83
2022-08-17T09:42:39.459Z,7.97
2022-08-17T09:45:10.938Z,7.87
2022-08-17T09:47:38.013Z,7.90
2022-08-17T09:50:07.397Z,7.83
2022-08-17T09:52:30.931Z,7.23
2022-08-17T09:54:54.707Z,7.03
2022-08-17T09:57:32.364Z,7.00
2022-08-17T10:00:10.074Z,6.63
2022-08-17T10:02:53.532Z,7.03
2022-08-17T10:05:22.327Z,6.90
2022-08-17T10:07:48.570Z,6.90
2022-08-17T10:10:14.800Z,6.47
2022-08-17T10:12:40.425Z,6.70
2022-08-17T10:15:22.885Z,6.93
2022-08-17T10:17:59.755Z,6.80
2022-08-17T10:20:27.493Z,7.13
2022-08-17T10:23:10.639Z,7.33
2022-08-17T10:25:55.497Z,8.53
2022-08-17T10:28:20.120Z,8.63
2022-08-17T10:30:47.715Z,8.10
2022-08-17T10:33:16.746Z,9.17
2022-08-17T10:35:45.656Z,8.63
2022-08-17T10:38:28.676Z,8.40
2022-08-17T10:40:55.506Z,9.17
2022-08-17T10:43:29.361Z,9.67
2022-08-17T10:46:29.886Z,8.00
2022-08-17T10:48:40.174Z,9.40
2022-08-17T10:51:08.811Z,9.33
2022-08-17T10:53:55.362Z,9.20
2022-08-17T10:56:25.738Z,9.17
2022-08-17T10:58:50.613Z,9.53
2022-08-17T11:01:12.875Z,9.77
2022-08-17T11:03:34.566Z,9.50
2022-08-17T11:06:01.308Z,8.77
2022-08-17T11:09:03.558Z,9.30
2022-08-17T11:11:43.143Z,9.33
2022-08-17T11:14:17.954Z,9.20
2022-08-17T11:16:48.068Z,8.83
2022-08-17T11:19:55.873Z,7.90
2022-08-17T11:22:33.545Z,7.53
2022-08-17T11:24:58.533Z,7.67
2022-08-17T11:27:25.507Z,7.60
2022-08-17T11:29:58.160Z,8.10
2022-08-17T11:32:47.468Z,6.93
2022-08-17T11:35:34.980Z,7.87
2022-08-17T11:38:03.736Z,7.57
2022-08-17T11:40:38.632Z,7.60
2022-08-17T11:43:42.650Z,8.00
2022-08-17T11:46:15.949Z,7.87
2022-08-17T11:48:58.056Z,8.07
2022-08-17T11:51:34.637Z,7.47
2022-08-17T11:56:53.306Z,7.67
2022-08-17T11:59:52.297Z,7.90
2022-08-17T12:02:36.114Z,7.17
2022-08-17T12:05:21.559Z,7.80
2022-08-17T12:07:45.179Z,7.90
2022-08-17T12:10:07.334Z,6.77
2022-08-17T12:12:33.613Z,7.17
2022-08-17T12:15:12.930Z,6.37
2022-08-17T12:17:41.442Z,5.60
2022-08-17T12:20:17.149Z,5.50
2022-08-17T12:22:46.596Z,5.00
2022-08-17T12:25:13.632Z,4.53
2022-08-17T12:27:47.700Z,4.00
2022-08-17T12:30:22.046Z,4.03
2022-08-17T12:32:47.624Z,4.20
2022-08-17T12:35:20.854Z,3.70
2022-08-17T12:37:46.649Z,3.67
2022-08-17T12:40:22.481Z,3.90
2022-08-17T12:42:55.356Z,4.00
2022-08-17T12:45:24.869Z,3.70
2022-08-17T12:47:46.111Z,3.90
2022-08-17T12:50:29.878Z,3.67
2022-08-17T12:52:52.045Z,4.07
2022-08-17T12:55:22.469Z,4.00
2022-08-17T12:57:49.719Z,4.10
2022-08-17T13:00:16.323Z,4.00
2022-08-17T13:02:44.991Z,4.07
2022-08-17T13:05:08.262Z,3.80
2022-08-17T13:07:33.403Z,4.00
2022-08-17T13:09:54.825Z,3.97
2022-08-17T13:12:16.283Z,4.23
2022-08-17T13:14:39.105Z,3.70
2022-08-17T13:17:08.374Z,4.03
2022-08-17T13:19:40.764Z,3.90
2022-08-17T13:22:04.205Z,4.30
2022-08-17T13:24:27.817Z,4.07
2022-08-17T13:26:52.030Z,4.00
2022-08-17T13:29:24.086Z,4.10
2022-08-17T13:31:51.775Z,4.07
2022-08-17T13:34:17.010Z,4.03
2022-08-17T13:36:40.183Z,3.93
2022-08-17T13:39:14.926Z,4.10
2022-08-17T13:41:39.106Z,4.20
2022-08-17T13:44:00.800Z,3.70
2022-08-17T13:46:31.091Z,3.70
2022-08-17T13:49:02.734Z,4.10
2022-08-17T13:51:43.585Z,3.90
2022-08-17T13:54:07.693Z,3.73
2022-08-17T13:56:40.419Z,3.87
2022-08-17T13:59:04.033Z,3.93
2022-08-17T14:01:32.039Z,4.00
2022-08-17T14:03:58.501Z,4.03
2022-08-17T14:06:49.805Z,3.70
2022-08-17T14:09:06.340Z,3.90
2022-08-17T14:11:28.002Z,3.50
2022-08-17T14:13:49.989Z,3.67
2022-08-17T14:16:31.817Z,3.60
2022-08-17T14:19:02.166Z,3.60
2022-08-17T14:22:17.984Z,3.90
2022-08-17T14:24:44.820Z,3.43
2022-08-17T14:27:09.051Z,3.70
2022-08-17T14:29:31.778Z,3.77
2022-08-17T14:31:54.467Z,3.47
2022-08-17T14:34:16.782Z,3.50
2022-08-17T14:36:41.834Z,3.87
2022-08-17T14:39:10.408Z,3.50
2022-08-17T14:42:03.405Z,3.53
2022-08-17T14:44:46.504Z,3.73
2022-08-17T14:47:11.131Z,3.93
2022-08-17T14:49:40.153Z,3.65
2022-08-17T14:52:03.674Z,3.75
2022-08-17T14:54:33.086Z,3.58
2022-08-17T14:57:26.188Z,3.70
2022-08-17T15:00:17.451Z,3.30
2022-08-17T15:03:06.002Z,3.20
2022-08-17T15:05:51.314Z,3.47
2022-08-17T15:08:34.966Z,3.50
2022-08-17T15:11:04.736Z,3.20
2022-08-17T15:13:52.158Z,3.57
2022-08-17T15:16:36.003Z,3.43
2022-08-17T15:19:18.179Z,3.70
2022-08-17T15:22:00.427Z,3.60
2022-08-17T15:24:44.356Z,3.53
2022-08-17T15:27:32.654Z,3.80
2022-08-17T15:30:15.734Z,3.40
2022-08-17T15:32:45.691Z,3.47
2022-08-17T15:35:18.269Z,3.47
2022-08-17T15:37:45.432Z,3.40
2022-08-17T15:40:26.677Z,3.17
2022-08-17T15:42:47.979Z,2.97
2022-08-17T15:45:33.564Z,3.17
2022-08-17T15:48:16.209Z,3.37
2022-08-17T15:50:49.037Z,3.40
2022-08-17T15:53:31.302Z,3.50
2022-08-17T15:55:54.669Z,3.57
2022-08-17T15:58:37.849Z,4.00
2022-08-17T16:02:15.394Z,3.90
2022-08-17T16:04:30.071Z,4.27
2022-08-17T16:07:13.094Z,3.67
2022-08-17T16:09:55.263Z,3.70
2022-08-17T16:12:40.086Z,3.70
2022-08-17T16:15:02.443Z,4.20
2022-08-17T16:17:39.206Z,4.87
2022-08-17T16:20:22.583Z,4.47
2022-08-17T16:23:06.635Z,4.00
2022-08-17T16:25:52.884Z,3.70
2022-08-17T16:28:38.608Z,3.73
2022-08-17T16:31:00.158Z,4.00
2022-08-17T16:33:42.276Z,3.97
2022-08-17T16:36:54.689Z,4.00
2022-08-17T16:39:38.449Z,3.63
2022-08-17T16:42:27.361Z,4.10
2022-08-17T16:45:12.971Z,3.83
2022-08-17T16:47:45.212Z,4.03
2022-08-17T16:50:08.269Z,3.80
2022-08-17T16:52:32.484Z,3.90
2022-08-17T16:54:56.527Z,3.60
2022-08-17T16:57:18.613Z,3.60
2022-08-17T16:59:42.575Z,3.93
2022-08-17T17:02:11.279Z,3.90
2022-08-17T17:04:35.153Z,4.03
2022-08-17T17:07:01.731Z,3.83
2022-08-17T17:09:27.523Z,3.90
2022-08-17T17:11:52.249Z,3.97
2022-08-17T17:14:17.140Z,4.30
2022-08-17T17:16:48.780Z,4.33
2022-08-17T17:19:16.249Z,4.23
2022-08-17T17:21:52.204Z,4.10
2022-08-17T17:24:17.063Z,3.90
2022-08-17T17:26:55.366Z,4.10
2022-08-17T17:29:47.421Z,4.47
2022-08-17T17:32:17.440Z,4.70
2022-08-17T17:34:44.906Z,4.67
2022-08-17T17:37:14.658Z,4.93
2022-08-17T17:39:43.657Z,4.80
2022-08-17T17:42:08.410Z,5.17
2022-08-17T17:44:31.803Z,5.10
2022-08-17T17:46:58.231Z,5.00
2022-08-17T17:49:20.712Z,5.30
2022-08-17T17:52:06.258Z,5.23
2022-08-17T17:54:45.054Z,5.10
2022-08-17T17:57:12.440Z,5.80
2022-08-17T17:59:44.096Z,5.13
2022-08-17T18:02:13.147Z,4.77
2022-08-17T18:04:44.967Z,5.20
2022-08-17T18:07:18.037Z,5.37
2022-08-17T18:09:54.050Z,4.80
2022-08-17T18:12:29.014Z,5.40
2022-08-17T18:15:05.131Z,5.13
2022-08-17T18:17:29.779Z,5.13
2022-08-17T18:19:51.422Z,5.10
2022-08-17T18:22:18.173Z,5.20
2022-08-17T18:24:41.650Z,4.93
2022-08-17T18:27:08.432Z,5.20
2022-08-17T18:29:38.761Z,5.00
2022-08-17T18:32:35.212Z,5.07
2022-08-17T18:34:59.003Z,5.20
2022-08-17T18:37:45.109Z,5.00
2022-08-17T18:40:42.694Z,5.47
2022-08-17T18:43:11.639Z,5.27
2022-08-17T18:45:39.702Z,5.20
2022-08-17T18:48:01.866Z,4.90
2022-08-17T18:50:26.974Z,4.63
2022-08-17T18:52:49.544Z,5.27
2022-08-17T18:55:14.270Z,5.47
2022-08-17T18:57:38.118Z,5.23
2022-08-17T19:00:00.155Z,5.13
2022-08-17T19:02:44.628Z,5.03
2022-08-17T19:05:11.027Z,5.00
2022-08-17T19:07:34.930Z,5.10
2022-08-17T19:10:03.495Z,5.40
2022-08-17T19:12:31.115Z,5.33
2022-08-17T19:14:54.045Z,5.40
2022-08-17T19:17:21.678Z,5.50
2022-08-17T19:19:50.478Z,5.00
2022-08-17T19:22:28.955Z,5.40
2022-08-17T19:25:02.776Z,5.10
2022-08-17T19:27:33.678Z,5.23
2022-08-17T19:30:03.896Z,5.53
2022-08-17T19:32:31.093Z,5.67
2022-08-17T19:34:52.775Z,5.57
2022-08-17T19:37:24.782Z,5.97
2022-08-17T19:39:55.631Z,5.63
2022-08-17T19:42:31.069Z,5.80
2022-08-17T19:45:00.631Z,5.53
2022-08-17T19:47:50.958Z,5.67
2022-08-17T19:50:11.602Z,5.30
2022-08-17T19:52:46.610Z,5.50
2022-08-17T19:55:18.357Z,5.40
2022-08-17T19:57:48.637Z,6.20
2022-08-17T20:00:13.537Z,5.63
2022-08-17T20:02:39.180Z,5.57
2022-08-17T20:05:03.316Z,5.87
2022-08-17T20:07:28.350Z,5.53
2022-08-17T20:09:54.221Z,5.60
2022-08-17T20:12:19.224Z,5.73
2022-08-17T20:14:53.402Z,5.60
2022-08-17T20:17:19.096Z,5.60
2022-08-17T20:19:48.945Z,6.03
2022-08-17T20:22:12.153Z,5.73
2022-08-17T20:24:38.304Z,5.80
2022-08-17T20:27:02.275Z,5.50
2022-08-17T20:29:37.788Z,6.13
2022-08-17T20:32:27.512Z,6.10
2022-08-17T20:34:49.527Z,6.07
2022-08-17T20:37:27.406Z,5.90
2022-08-17T20:40:15.052Z,5.93
2022-08-17T20:42:37.289Z,5.93
2022-08-17T20:45:02.491Z,6.37
2022-08-17T20:47:28.610Z,6.03
2022-08-17T20:49:52.500Z,6.30
2022-08-17T20:52:16.585Z,5.97
2022-08-17T20:54:48.804Z,5.80
2022-08-17T20:57:14.387Z,6.30
2022-08-17T21:00:07.470Z,6.10
2022-08-17T21:02:32.263Z,6.30
2022-08-17T21:05:09.014Z,6.00
2022-08-17T21:07:42.811Z,5.90
2022-08-17T21:10:14.045Z,6.30
2022-08-17T21:12:43.691Z,5.97
2022-08-17T21:15:09.105Z,6.20
2022-08-17T21:17:44.949Z,6.57
2022-08-17T21:20:15.650Z,6.37
2022-08-17T21:22:48.218Z,6.43
2022-08-17T21:25:20.725Z,6.30
2022-08-17T21:27:48.607Z,6.53
2022-08-17T21:30:17.232Z,6.60
2022-08-17T21:32:42.242Z,6.20
2022-08-17T21:35:22.734Z,6.43
2022-08-17T21:37:46.248Z,6.13
2022-08-17T21:40:23.626Z,6.47
2022-08-17T21:42:49.289Z,6.60
2022-08-17T21:45:13.467Z,6.53
2022-08-17T21:47:36.297Z,6.70
2022-08-17T21:50:17.606Z,6.70
2022-08-17T21:52:40.468Z,7.27
2022-08-17T21:55:03.235Z,7.00
2022-08-17T21:57:28.371Z,7.53
2022-08-17T22:00:16.925Z,7.10
2022-08-17T22:02:59.971Z,6.13
2022-08-17T22:05:46.866Z,6.47
2022-08-17T22:08:30.177Z,6.30
2022-08-17T22:11:14.154Z,6.27
2022-08-17T22:14:05.300Z,6.53
2022-08-17T22:16:28.293Z,6.63
2022-08-17T22:18:53.581Z,6.50
2022-08-17T22:21:18.199Z,6.87
2022-08-17T22:24:06.164Z,6.97
2022-08-17T22:26:49.810Z,7.03
2022-08-17T22:29:44.113Z,7.13
2022-08-17T22:32:05.911Z,6.87
2022-08-17T22:34:30.574Z,7.73
2022-08-17T22:37:21.489Z,7.60
2022-08-17T22:39:58.274Z,7.50
2022-08-17T22:42:19.960Z,8.13
2022-08-17T22:44:48.121Z,8.90
2022-08-17T22:47:30.452Z,7.73
2022-08-17T22:49:57.403Z,8.33
2022-08-17T22:52:32.012Z,8.53
2022-08-17T22:55:20.678Z,8.27
2022-08-17T22:58:04.326Z,8.83
2022-08-17T23:00:34.270Z,9.63
2022-08-17T23:03:16.656Z,9.70
2022-08-17T23:05:39.950Z,10.80
2022-08-17T23:08:01.470Z,10.53
2022-08-17T23:10:22.927Z,11.10
2022-08-17T23:12:44.142Z,10.93
2022-08-17T23:15:10.652Z,11.53
2022-08-17T23:17:37.189Z,11.40
2022-08-17T23:19:59.143Z,10.97
2022-08-17T23:22:20.696Z,10.93
2022-08-17T23:24:45.294Z,11.47
2022-08-17T23:27:07.699Z,11.10
2022-08-17T23:29:30.296Z,11.77
2022-08-17T23:31:52.179Z,11.90
2022-08-17T23:34:18.326Z,13.13
2022-08-17T23:36:40.413Z,13.60
2022-08-17T23:39:01.599Z,12.50
2022-08-17T23:41:24.319Z,13.27
2022-08-17T23:43:47.859Z,12.33
2022-08-17T23:46:09.155Z,12.83
2022-08-17T23:48:35.754Z,12.97
2022-08-17T23:51:00.572Z,13.10
2022-08-17T23:53:25.932Z,12.40
2022-08-17T23:55:47.508Z,12.30
2022-08-17T23:58:29.731Z,11.90
